Time;durP1;ratioP1;P1;durP2;ratioP2;P2;SDS_P1;SDS_P2;PMS_P1;PMS_P2;Temp;Humidity;BMP_temperature;BMP_pressure;BME280_temperature;BME280_humidity;BME280_pressure;Samples;Min_cycle;Max_cycle;Signal;HPM_P1;HPM_P2
2023/04/02 00:03:07;;;;;;;;;;;;;;;9.31;67.74;96697.06;10404004;28;20258;-53
2023/04/02 00:08:17;;;;;;;1.50;1.20;;;;;;;9.35;64.75;96702.19;10390024;28;20015;-53
2023/04/02 00:13:21;;;;;;;1.88;1.40;;;;;;;9.34;64.83;96692.69;10401321;28;20063;-53
2023/04/02 00:18:21;;;;;;;1.48;1.20;;;;;;;9.39;63.51;96686.59;10401965;28;20067;-52
2023/04/02 00:23:21;;;;;;;0.93;0.82;;;;;;;9.51;63.10;96686.44;10402883;28;20068;-53
2023/04/02 00:28:23;;;;;;;1.42;1.20;;;;;;;9.56;64.04;96674.31;10401412;28;20087;-52
2023/04/02 00:33:25;;;;;;;1.95;1.10;;;;;;;9.62;62.91;96689.72;10402113;28;20068;-53
2023/04/02 00:38:28;;;;;;;2.60;1.30;;;;;;;9.66;63.78;96687.97;10401378;28;20474;-53
2023/04/02 00:43:30;;;;;;;1.40;0.98;;;;;;;9.75;61.33;96688.69;10402698;28;20466;-53
2023/04/02 00:48:32;;;;;;;3.17;1.45;;;;;;;9.77;60.81;96686.94;10401721;28;20147;-53
2023/04/02 00:53:32;;;;;;;1.42;1.10;;;;;;;9.73;59.35;96699.94;10399703;28;20494;-53
2023/04/02 00:58:35;;;;;;;2.03;1.20;;;;;;;9.84;61.24;96697.19;10397905;28;20068;-53
2023/04/02 01:03:35;;;;;;;1.55;1.20;;;;;;;9.89;59.87;96692.81;10402559;28;20071;-53
2023/04/02 01:08:50;;;;;;;1.90;1.00;;;;;;;9.86;58.63;96674.69;10400409;28;20123;-53
2023/04/02 01:13:58;;;;;;;1.67;1.10;;;;;;;9.84;59.12;96686.81;10401917;28;20562;-53
2023/04/02 01:19:07;;;;;;;1.48;1.00;;;;;;;9.79;58.50;96697.25;10402241;28;20116;-54
2023/04/02 01:24:10;;;;;;;1.20;1.10;;;;;;;9.77;58.44;96699.88;10402681;28;21595;-53
2023/04/02 01:29:13;;;;;;;1.45;1.25;;;;;;;9.76;58.94;96705.06;10401645;28;20128;-53
2023/04/02 01:34:18;;;;;;;1.95;1.13;;;;;;;9.74;58.46;96706.84;10400732;28;20127;-54
2023/04/02 01:39:39;;;;;;;1.60;1.10;;;;;;;9.62;57.75;96696.66;10402100;28;20131;-54
2023/04/02 01:45:12;;;;;;;1.58;1.10;;;;;;;9.64;58.21;96711.28;10399154;28;20128;-53
2023/04/02 01:50:31;;;;;;;2.30;1.10;;;;;;;9.66;57.62;96704.34;10402322;28;20569;-53
2023/04/02 01:55:36;;;;;;;1.15;1.00;;;;;;;9.69;58.57;96712.06;10407726;28;20115;-53
2023/04/02 02:00:41;;;;;;;1.33;1.23;;;;;;;9.67;57.74;96711.25;10405660;28;20154;-53
2023/04/02 02:05:40;;;;;;;2.15;1.33;;;;;;;9.60;58.46;96690.63;10408475;28;20123;-53
2023/04/02 02:10:39;;;;;;;3.75;1.50;;;;;;;9.63;57.94;96704.41;10408202;28;20127;-53
2023/04/02 02:15:38;;;;;;;2.20;1.05;;;;;;;9.63;57.20;96708.72;10408122;28;20068;-53
2023/04/02 02:20:38;;;;;;;1.80;1.10;;;;;;;9.49;56.81;96681.28;10407383;28;20086;-53
2023/04/02 02:25:37;;;;;;;1.25;1.02;;;;;;;9.50;56.46;96676.97;10408276;28;20120;-54
2023/04/02 02:30:49;;;;;;;1.73;1.20;;;;;;;9.66;56.49;96704.34;10405307;28;20136;-53
2023/04/02 02:36:12;;;;;;;0.98;0.90;;;;;;;9.65;56.14;96713.03;10407184;28;20464;-53
2023/04/02 02:41:25;;;;;;;2.70;1.20;;;;;;;9.50;56.97;96680.41;10406238;28;20601;-53
2023/04/02 02:46:26;;;;;;;1.63;1.15;;;;;;;9.51;57.07;96700.25;10407348;28;20144;-53
2023/04/02 02:51:38;;;;;;;1.23;1.08;;;;;;;9.46;57.98;96704.63;10406528;28;20120;-53
2023/04/02 02:56:43;;;;;;;15.15;5.13;;;;;;;9.39;58.02;96712.50;10406119;28;20811;-53
2023/04/02 03:01:43;;;;;;;6.70;2.40;;;;;;;9.10;59.14;96713.69;10406710;28;20119;-53
2023/04/02 03:06:49;;;;;;;7.63;3.28;;;;;;;8.91;60.52;96726.84;10405743;28;20099;-53
2023/04/02 03:12:04;;;;;;;5.10;2.58;;;;;;;8.67;61.93;96719.34;10405560;28;20127;-53
2023/04/02 03:17:34;;;;;;;6.32;2.53;;;;;;;8.58;63.15;96729.78;10405119;28;20124;-54
2023/04/02 03:22:37;;;;;;;5.22;2.90;;;;;;;8.32;63.74;96728.28;10396029;28;20109;-54
2023/04/02 03:27:41;;;;;;;6.53;2.75;;;;;;;8.16;63.91;96699.13;10404689;28;21086;-53
2023/04/02 03:32:42;;;;;;;6.70;3.13;;;;;;;8.29;63.69;96726.59;10406148;28;20062;-53
2023/04/02 03:37:50;;;;;;;5.30;2.60;;;;;;;8.23;64.17;96728.38;10407805;28;20067;-53
2023/04/02 03:42:51;;;;;;;5.22;2.15;;;;;;;7.77;64.65;96682.22;10407580;28;20506;-53
2023/04/02 03:48:15;;;;;;;3.25;2.05;;;;;;;7.89;64.46;96713.13;10407872;28;20067;-54
2023/04/02 03:53:14;;;;;;;5.68;2.95;;;;;;;8.05;63.71;96740.53;10406975;28;20506;-53
2023/04/02 03:58:20;;;;;;;7.22;2.55;;;;;;;8.07;63.72;96749.16;10407562;28;20067;-53
2023/04/02 04:03:30;;;;;;;7.18;4.57;;;;;;;7.64;63.75;96687.47;10424360;28;20094;-53
2023/04/02 04:08:43;;;;;;;9.63;5.85;;;;;;;7.82;65.42;96745.00;10405860;28;20111;-53
2023/04/02 04:14:07;;;;;;;12.07;4.80;;;;;;;7.72;66.09;96761.44;10405438;28;21070;-54
2023/04/02 04:19:21;;;;;;;5.60;3.10;;;;;;;7.74;66.18;96759.72;10398019;28;20128;-52
2023/04/02 04:24:23;;;;;;;8.50;2.88;;;;;;;7.76;66.54;96768.31;10406446;28;20068;-54
2023/04/02 04:29:44;;;;;;;7.35;2.30;;;;;;;7.55;65.42;96744.31;10406547;28;20084;-53
2023/04/02 04:34:50;;;;;;;7.05;2.47;;;;;;;7.81;64.89;96777.75;10403862;28;20790;-53
2023/04/02 04:40:19;;;;;;;7.85;3.50;;;;;;;7.80;64.71;96780.31;10401169;28;20072;-53
2023/04/02 04:45:43;;;;;;;15.73;6.60;;;;;;;7.74;66.26;96780.38;10400434;28;20490;-52
2023/04/02 04:50:54;;;;;;;20.23;9.57;;;;;;;7.47;66.75;96766.72;10405689;28;20541;-53
2023/04/02 04:55:56;;;;;;;14.38;7.30;;;;;;;7.65;67.55;96796.75;10404249;28;20115;-53
2023/04/02 05:01:09;;;;;;;15.02;7.10;;;;;;;7.57;68.55;96793.34;10404526;28;20238;-53
2023/04/02 05:06:23;;;;;;;9.18;5.93;;;;;;;7.44;68.42;96749.53;10404581;28;20071;-50
2023/04/02 05:11:32;;;;;;;8.30;3.05;;;;;;;7.91;67.03;96793.19;10403983;28;20127;-52
2023/04/02 05:17:12;;;;;;;9.32;3.55;;;;;;;7.98;65.91;96789.69;10404421;28;20140;-52
2023/04/02 05:22:16;;;;;;;10.02;3.33;;;;;;;8.26;65.68;96803.28;10396917;28;20208;-53
2023/04/02 05:27:46;;;;;;;8.40;4.60;;;;;;;8.57;63.88;96800.47;10412232;28;20690;-52
2023/04/02 05:33:08;;;;;;;7.33;2.80;;;;;;;8.67;63.40;96802.13;10412128;28;20079;-53
2023/04/02 05:38:07;;;;;;;10.23;4.32;;;;;;;8.92;63.35;96813.91;10394613;28;20067;-53
2023/04/02 05:43:15;;;;;;;25.88;14.68;;;;;;;8.99;62.76;96813.88;10410952;28;20072;-54
2023/04/02 05:48:19;;;;;;;18.38;12.27;;;;;;;9.02;63.30;96798.31;10411318;28;20123;-50
2023/04/02 05:53:24;;;;;;;15.30;9.60;;;;;;;9.32;62.56;96804.91;10411249;28;20076;-51
2023/04/02 05:58:34;;;;;;;20.08;10.15;;;;;;;8.23;62.38;96573.31;10408449;28;20060;-53
2023/04/02 06:03:44;;;;;;;13.68;7.82;;;;;;;9.98;61.46;96819.66;10408707;28;20064;-53
2023/04/02 06:08:51;;;;;;;8.88;5.05;;;;;;;10.28;57.72;96822.69;10392020;28;20086;-52
2023/04/02 06:13:50;;;;;;;5.68;2.55;;;;;;;10.60;57.48;96825.63;10409394;28;20064;-52
2023/04/02 06:18:49;;;;;;;3.97;2.25;;;;;;;10.62;53.54;96800.53;10409877;28;20031;-53
2023/04/02 06:23:59;;;;;;;4.85;3.03;;;;;;;11.08;52.62;96821.41;10409992;28;20125;-52
2023/04/02 06:29:18;;;;;;;6.07;2.42;;;;;;;11.35;50.71;96828.69;10408571;28;20119;-52
2023/04/02 06:34:21;;;;;;;4.93;2.60;;;;;;;11.60;51.57;96807.44;10408789;28;20067;-52
2023/04/02 06:39:22;;;;;;;5.07;2.78;;;;;;;11.94;51.23;96819.72;10409166;28;20071;-52
2023/04/02 06:44:26;;;;;;;3.92;1.40;;;;;;;12.15;50.00;96816.63;10409077;28;20059;-52
2023/04/02 06:49:37;;;;;;;3.30;1.80;;;;;;;12.20;48.82;96817.38;10408896;28;20407;-52
2023/04/02 06:54:36;;;;;;;2.17;1.20;;;;;;;12.39;49.33;96806.59;10406879;28;20064;-53
2023/04/02 06:59:35;;;;;;;3.88;1.42;;;;;;;12.60;48.32;96813.91;10406939;28;20036;-52
2023/04/02 07:04:34;;;;;;;3.17;1.25;;;;;;;12.76;48.20;96821.34;10407968;28;20067;-52
2023/04/02 07:09:33;;;;;;;1.05;0.95;;;;;;;12.99;47.70;96826.81;10407331;28;20050;-53
2023/04/02 07:14:32;;;;;;;2.92;1.45;;;;;;;12.98;44.96;96822.53;10407482;28;20115;-53
2023/04/02 07:19:31;;;;;;;2.08;1.13;;;;;;;13.37;46.34;96827.56;10407634;28;20108;-53
2023/04/02 07:24:29;;;;;;;;;;;;;;;13.64;45.41;96822.53;10407456;28;20071;-53
2023/04/02 07:29:28;;;;;;;0.90;0.90;;;;;;;13.86;45.21;96831.44;10407214;28;19951;-53
2023/04/02 07:34:27;;;;;;;;;;;;;;;13.98;44.16;96825.88;10406868;28;20016;-53
2023/04/02 07:39:26;;;;;;;1.65;1.10;;;;;;;14.09;43.68;96825.53;10406261;28;20459;-53
2023/04/02 07:44:25;;;;;;;;;;;;;;;14.13;42.56;96828.94;10405985;28;20115;-53
2023/04/02 07:49:24;;;;;;;0.70;0.70;;;;;;;14.27;42.39;96818.94;10405951;28;19916;-53
2023/04/02 07:54:23;;;;;;;;;;;;;;;14.35;42.35;96821.28;10406849;28;20131;-53
2023/04/02 07:59:21;;;;;;;3.55;0.90;;;;;;;14.54;40.80;96822.41;10406511;28;20085;-53
2023/04/02 08:04:21;;;;;;;;;;;;;;;14.30;39.80;96834.47;10406397;28;20016;-53
2023/04/02 08:09:20;;;;;;;3.03;0.90;;;;;;;14.37;39.44;96841.22;10405728;28;20008;-53
2023/04/02 08:14:18;;;;;;;;;;;;;;;14.62;38.38;96837.84;10406955;28;20141;-53
2023/04/02 08:19:18;;;;;;;1.25;1.10;;;;;;;14.77;38.05;96818.25;10405249;28;19916;-53
2023/04/02 08:24:18;;;;;;;1.80;0.95;;;;;;;15.30;38.42;96833.03;10405730;28;20107;-55
2023/04/02 08:29:17;;;;;;;1.08;0.80;;;;;;;15.59;38.09;96830.22;10404493;28;20479;-52
2023/04/02 08:34:16;;;;;;;;;;;;;;;15.63;37.98;96838.84;10408652;28;20835;-54
2023/04/02 08:39:14;;;;;;;6.40;4.23;;;;;;;15.34;37.03;96845.06;10400533;28;19950;-53
2023/04/02 08:44:52;;;;;;;;;;;;;;;15.19;37.75;96836.84;10402131;28;20123;-53
2023/04/02 08:49:57;;;;;;;2.95;2.10;;;;;;;15.42;37.36;96843.06;10304015;28;20008;-53
2023/04/02 08:54:57;;;;;;;3.78;2.40;;;;;;;15.86;37.40;96838.03;10377707;28;20119;-53
2023/04/02 09:00:04;;;;;;;1.52;0.93;;;;;;;15.81;36.69;96819.00;10408961;28;20116;-53
2023/04/02 09:05:06;;;;;;;1.85;0.98;;;;;;;16.30;37.85;96848.56;10409728;28;20075;-54
2023/04/02 09:10:06;;;;;;;0.90;0.90;;;;;;;16.39;36.14;96826.44;10411048;28;20083;-52
2023/04/02 09:15:33;;;;;;;1.50;1.25;;;;;;;16.90;35.51;96844.47;10409239;28;20075;-52
2023/04/02 09:20:32;;;;;;;0.70;0.70;;;;;;;16.91;35.13;96835.72;10410302;28;20060;-53
2023/04/02 09:25:32;;;;;;;2.60;1.08;;;;;;;17.07;34.57;96840.31;10410936;28;20051;-53
2023/04/02 09:30:30;;;;;;;0.98;0.98;;;;;;;17.16;34.98;96820.72;10409332;28;20473;-54
2023/04/02 09:35:52;;;;;;;3.38;2.10;;;;;;;16.98;34.43;96830.19;10406153;28;20520;-53
2023/04/02 09:40:57;;;;;;;3.08;1.55;;;;;;;17.05;34.81;96827.28;10407002;28;20068;-53
2023/04/02 09:45:56;;;;;;;3.20;1.27;;;;;;;16.98;35.06;96827.56;10407396;28;20513;-53
2023/04/02 09:51:12;;;;;;;10.00;5.05;;;;;;;17.04;34.81;96814.22;10425152;28;20182;-54
2023/04/02 09:56:23;;;;;;;6.00;2.08;;;;;;;17.08;34.49;96814.03;10404401;28;20167;-55
2023/04/02 10:01:28;;;;;;;1.38;1.27;;;;;;;16.70;34.12;96831.31;10406095;28;20135;-53
2023/04/02 10:06:28;;;;;;;1.48;1.05;;;;;;;16.96;35.30;96816.31;10403842;28;20568;-53
2023/04/02 10:11:32;;;;;;;1.88;1.17;;;;;;;17.41;35.73;96775.94;10405685;28;20123;-53
2023/04/02 10:16:35;;;;;;;2.13;1.00;;;;;;;18.01;32.36;96803.00;10403107;28;20121;-53
2023/04/02 10:21:37;;;;;;;1.40;1.30;;;;;;;18.63;32.90;96800.09;10402857;28;20099;-53
2023/04/02 10:27:08;;;;;;;2.55;1.63;;;;;;;19.10;29.85;96796.94;10403191;28;20139;-53
2023/04/02 10:32:30;;;;;;;2.10;1.30;;;;;;;19.34;30.04;96797.44;10399504;28;20202;-54
2023/04/02 10:37:44;;;;;;;1.00;0.90;;;;;;;19.48;31.74;96794.09;10399323;28;20123;-54
2023/04/02 10:43:02;;;;;;;2.10;1.25;;;;;;;19.73;29.71;96793.72;10393295;28;20119;-54
2023/04/02 10:48:45;;;;;;;1.52;1.13;;;;;;;19.61;30.22;96789.94;10403911;28;20099;-54
2023/04/02 10:53:57;;;;;;;0.80;0.80;;;;;;;19.94;30.78;96786.44;10404294;28;20076;-54
2023/04/02 10:59:11;;;;;;;0.98;0.88;;;;;;;20.37;28.82;96782.28;10403954;28;20148;-53
2023/04/02 11:04:20;;;;;;;1.10;1.00;;;;;;;20.87;28.19;96777.75;10404661;28;20478;-54
2023/04/02 11:09:23;;;;;;;1.00;0.90;;;;;;;21.31;27.85;96771.66;10403720;28;20111;-54
2023/04/02 11:14:28;;;;;;;3.92;1.20;;;;;;;21.51;28.20;96763.38;10403701;28;20115;-54
2023/04/02 11:19:30;;;;;;;2.95;0.90;;;;;;;21.70;28.38;96770.19;10402817;28;20060;-55
2023/04/02 11:24:30;;;;;;;1.40;0.80;;;;;;;21.89;26.35;96756.69;10402901;28;20490;-54
2023/04/02 11:29:31;;;;;;;0.95;0.95;;;;;;;21.63;27.68;96750.38;10384017;28;20568;-54
2023/04/02 11:34:48;;;;;;;1.35;0.82;;;;;;;20.09;27.20;96761.88;10403594;28;20072;-53
2023/04/02 11:39:52;;;;;;;1.27;0.93;;;;;;;19.41;29.75;96767.25;10402187;28;20111;-53
2023/04/02 11:44:53;;;;;;;1.08;0.93;;;;;;;18.66;30.21;96777.16;10403218;28;20119;-53
2023/04/02 11:49:55;;;;;;;2.00;1.20;;;;;;;18.48;29.66;96760.53;10402019;28;20127;-53
2023/04/02 11:55:00;;;;;;;1.15;0.60;;;;;;;18.09;29.53;96760.66;10401792;28;20512;-53
2023/04/02 12:00:09;;;;;;;1.55;0.80;;;;;;;18.10;29.43;96715.06;10401416;28;20186;-54
2023/04/02 12:05:21;;;;;;;1.08;0.90;;;;;;;18.32;29.33;96756.94;10402115;28;20473;-53
2023/04/02 12:10:31;;;;;;;3.92;2.33;;;;;;;18.11;31.34;96764.06;10400906;28;20140;-53
2023/04/02 12:15:32;;;;;;;2.30;1.30;;;;;;;17.91;32.46;96750.06;10401716;28;20078;-52
2023/04/02 12:20:32;;;;;;;2.15;1.50;;;;;;;17.58;31.63;96751.59;10401027;28;20075;-52
2023/04/02 12:25:38;;;;;;;2.05;1.80;;;;;;;18.14;31.61;96749.00;10400917;28;20506;-52
2023/04/02 12:30:37;;;;;;;1.48;0.93;;;;;;;18.47;29.81;96739.56;10398896;28;20549;-53
2023/04/02 12:35:45;;;;;;;1.42;1.33;;;;;;;18.38;30.55;96732.97;10400510;28;20111;-53
2023/04/02 12:41:10;;;;;;;1.55;1.35;;;;;;;18.57;29.55;96718.03;10400748;28;20116;-53
2023/04/02 12:46:13;;;;;;;2.17;1.70;;;;;;;19.00;28.29;96736.91;10392181;28;20084;-53
2023/04/02 12:51:12;;;;;;;1.00;1.00;;;;;;;19.06;28.08;96734.91;10400682;28;20147;-53
2023/04/02 12:56:20;;;;;;;1.58;1.30;;;;;;;18.90;28.51;96740.06;10400715;28;20111;-54
2023/04/02 13:01:26;;;;;;;2.37;1.57;;;;;;;18.97;29.08;96734.47;10400838;28;20119;-54
2023/04/02 13:06:26;;;;;;;2.13;1.92;;;;;;;19.38;28.01;96735.88;10413853;28;20498;-55
2023/04/02 13:11:39;;;;;;;0.90;0.90;;;;;;;19.79;29.19;96688.94;10400783;28;20123;-53
2023/04/02 13:16:39;;;;;;;0.90;0.90;;;;;;;20.04;27.63;96698.09;10400687;28;20132;-54
2023/04/02 13:21:38;;;;;;;1.60;0.90;;;;;;;20.13;27.05;96726.56;10396234;28;20071;-55
2023/04/02 13:26:37;;;;;;;0.82;0.80;;;;;;;20.55;26.40;96722.44;10398026;28;20608;-54
2023/04/02 13:31:36;;;;;;;1.15;1.00;;;;;;;20.97;24.43;96717.41;10395119;28;20496;-54
2023/04/02 13:36:36;;;;;;;0.82;0.82;;;;;;;21.03;23.30;96711.75;10399389;28;20083;-54
2023/04/02 13:42:06;;;;;;;1.05;0.95;;;;;;;21.00;23.36;96714.56;10399328;28;20541;-54
2023/04/02 13:47:06;;;;;;;1.85;1.00;;;;;;;20.91;24.24;96673.75;10395180;28;20123;-54
2023/04/02 13:52:12;;;;;;;3.83;1.00;;;;;;;20.94;22.59;96713.16;10405424;28;20123;-54
2023/04/02 13:57:11;;;;;;;0.80;0.80;;;;;;;21.10;22.68;96711.31;10407225;28;20191;-54
2023/04/02 14:02:17;;;;;;;1.67;1.33;;;;;;;20.73;21.95;96677.50;10405513;28;20025;-54
2023/04/02 14:07:26;;;;;;;1.60;0.80;;;;;;;20.94;21.46;96707.88;10405276;28;20545;-54
2023/04/02 14:12:30;;;;;;;1.08;0.88;;;;;;;20.64;21.29;96706.09;10406195;28;20099;-54
2023/04/02 14:17:38;;;;;;;1.90;1.40;;;;;;;19.78;20.94;96713.53;10406600;28;20124;-53
2023/04/02 14:22:50;;;;;;;0.47;0.47;;;;;;;19.45;21.12;96711.78;10405405;28;20139;-53
2023/04/02 14:28:04;;;;;;;0.88;0.80;;;;;;;19.42;22.23;96711.09;10405195;28;20526;-52
2023/04/02 14:33:31;;;;;;;2.80;1.13;;;;;;;19.63;21.30;96709.13;10405990;28;20075;-52
2023/04/02 14:38:39;;;;;;;3.22;1.00;;;;;;;19.63;20.32;96698.59;10405191;28;20056;-52
2023/04/02 14:43:42;;;;;;;1.10;0.90;;;;;;;18.72;28.36;96732.22;10405006;28;20084;-52
2023/04/02 14:48:53;;;;;;;1.95;1.50;;;;;;;18.07;29.62;96715.22;10404305;28;20131;-52
2023/04/02 14:54:20;;;;;;;3.63;2.50;;;;;;;17.94;29.87;96718.44;10404336;28;20715;-53
2023/04/02 14:59:28;;;;;;;1.77;1.20;;;;;;;17.41;29.63;96702.53;10404001;28;20076;-53
2023/04/02 15:04:37;;;;;;;2.67;1.27;;;;;;;17.52;29.95;96714.22;10403292;28;20115;-53
2023/04/02 15:09:43;;;;;;;1.52;1.10;;;;;;;17.67;29.49;96720.53;10403180;28;20465;-52
2023/04/02 15:14:50;;;;;;;2.15;1.13;;;;;;;17.16;31.17;96726.34;10404031;28;20094;-54
2023/04/02 15:19:57;;;;;;;2.45;1.30;;;;;;;17.15;30.20;96728.13;10404362;28;20071;-54
2023/04/02 15:25:19;;;;;;;1.88;1.38;;;;;;;17.10;31.46;96745.84;10403190;28;20581;-51
2023/04/02 15:30:22;;;;;;;2.28;1.90;;;;;;;17.00;32.27;96745.34;10402510;28;20557;-51
2023/04/02 15:35:31;;;;;;;4.88;2.33;;;;;;;17.05;32.24;96748.66;10403296;28;20082;-51
2023/04/02 15:41:00;;;;;;;5.53;2.85;;;;;;;16.89;32.40;96753.69;10403324;28;20071;-52
2023/04/02 15:45:59;;;;;;;2.63;2.03;;;;;;;16.86;31.93;96759.06;10402713;28;20131;-53
2023/04/02 15:51:08;;;;;;;;;;;;;;;16.85;32.60;96762.59;10403220;28;20072;-52
2023/04/02 15:56:15;;;;;;;8.80;2.90;;;;;;;16.74;32.96;96756.91;10401846;28;20009;-52
2023/04/02 16:01:25;;;;;;;3.33;1.90;;;;;;;16.55;33.70;96779.53;10402200;28;20458;-52
2023/04/02 16:06:29;;;;;;;2.13;1.65;;;;;;;16.27;33.96;96778.03;10400723;28;20082;-52
2023/04/02 16:11:28;;;;;;;5.25;2.25;;;;;;;16.19;34.27;96787.94;10402495;28;20130;-54
2023/04/02 16:16:39;;;;;;;3.40;2.08;;;;;;;16.00;34.71;96777.34;10400954;28;20123;-53
2023/04/02 16:22:04;;;;;;;4.75;2.63;;;;;;;15.98;34.38;96794.88;10401168;28;20493;-53
2023/04/02 16:27:29;;;;;;;7.43;5.07;;;;;;;15.81;34.00;96798.09;10400728;28;20076;-52
2023/04/02 16:32:34;;;;;;;9.38;5.43;;;;;;;15.72;34.08;96806.28;10395068;28;20123;-51
2023/04/02 16:37:50;;;;;;;43.25;25.75;;;;;;;15.70;34.56;96801.09;10376574;28;20064;-52
2023/04/02 16:43:02;;;;;;;31.85;17.27;;;;;;;15.47;34.70;96807.16;10390027;28;20479;-51
2023/04/02 16:48:45;;;;;;;3.42;1.90;;;;;;;15.31;34.96;96819.91;10404167;28;20489;-51
2023/04/02 16:53:44;;;;;;;3.45;2.38;;;;;;;15.20;35.25;96809.84;10385041;28;20574;-52
2023/04/02 16:58:52;;;;;;;;;;;;;;;15.19;36.57;96817.72;10404325;28;20564;-53
2023/04/02 17:04:25;;;;;;;5.85;4.05;;;;;;;15.07;36.67;96832.06;10403449;28;19973;-53
2023/04/02 17:09:34;;;;;;;10.05;4.22;;;;;;;14.89;37.29;96840.50;10403651;28;20088;-52
2023/04/02 17:14:35;;;;;;;11.43;5.95;;;;;;;14.70;37.60;96854.16;10402376;28;20064;-51
2023/04/02 17:19:34;;;;;;;15.75;9.40;;;;;;;14.50;38.37;96856.50;10411335;28;20083;-53
2023/04/02 17:24:47;;;;;;;15.40;10.82;;;;;;;14.34;39.10;96871.78;10411920;28;20060;-51
2023/04/02 17:29:51;;;;;;;22.05;14.00;;;;;;;14.15;40.30;96881.94;10408702;28;20068;-52
2023/04/02 17:34:50;;;;;;;29.67;19.67;;;;;;;14.02;40.36;96906.66;10400154;28;20116;-52
2023/04/02 17:40:07;;;;;;;;;;;;;;;13.85;40.89;96912.34;10407590;28;20079;-52
2023/04/02 17:45:29;;;;;;;25.35;18.10;;;;;;;13.61;41.42;96921.66;10398133;28;19995;-52
2023/04/02 17:50:48;;;;;;;23.98;15.23;;;;;;;13.42;41.56;96937.78;10398635;28;20136;-50
2023/04/02 17:56:26;;;;;;;29.13;22.35;;;;;;;13.18;43.52;96940.97;10421035;28;20513;-50
2023/04/02 18:01:37;;;;;;;119.82;71.40;;;;;;;12.89;44.10;96945.13;10405397;28;20135;-53
2023/04/02 18:07:15;;;;;;;52.25;33.17;;;;;;;12.81;44.55;96952.25;10406155;28;20492;-51
2023/04/02 18:12:23;;;;;;;60.80;36.65;;;;;;;12.60;45.04;96956.19;10402946;28;20115;-52
2023/04/02 18:17:46;;;;;;;32.42;20.70;;;;;;;12.52;44.94;96953.75;10406028;28;20574;-52
2023/04/02 18:23:13;;;;;;;20.30;12.77;;;;;;;12.42;45.33;96954.84;10420800;28;20811;-51
2023/04/02 18:28:20;;;;;;;15.27;9.57;;;;;;;12.27;45.62;96971.59;10393729;28;20131;-52
2023/04/02 18:33:28;;;;;;;14.50;8.05;;;;;;;12.05;46.67;96973.78;10404255;28;20123;-52
2023/04/02 18:38:30;;;;;;;23.63;14.27;;;;;;;11.87;47.26;96986.22;10404223;28;20557;-52
2023/04/02 18:44:00;;;;;;;30.80;18.58;;;;;;;11.59;48.87;96988.44;10405038;28;20514;-51
2023/04/02 18:49:03;;;;;;;26.98;17.38;;;;;;;11.54;49.21;97012.81;10405376;28;20189;-50
2023/04/02 18:54:07;;;;;;;13.68;9.00;;;;;;;11.34;49.71;97015.72;10404691;28;20128;-51
2023/04/02 18:59:41;;;;;;;10.55;6.38;;;;;;;11.05;50.07;97006.66;10403796;28;20064;-51
2023/04/02 19:04:46;;;;;;;11.52;7.03;;;;;;;11.00;52.02;97039.63;10402173;28;20113;-51
2023/04/02 19:09:48;;;;;;;24.95;15.15;;;;;;;10.80;51.87;97042.47;10403383;28;20124;-54
2023/04/02 19:14:48;;;;;;;32.75;17.27;;;;;;;10.82;50.91;97045.88;10403587;28;20060;-52
2023/04/02 19:19:59;;;;;;;31.50;19.60;;;;;;;10.72;51.97;97031.31;10403019;28;20067;-52
2023/04/02 19:25:15;;;;;;;19.20;12.55;;;;;;;10.64;52.88;97040.94;10401666;28;20071;-49
2023/04/02 19:30:39;;;;;;;13.60;9.00;;;;;;;10.50;53.19;97044.56;10401809;28;20123;-51
2023/04/02 19:35:44;;;;;;;10.70;7.15;;;;;;;10.45;52.73;97046.34;10402639;28;20068;-52
2023/04/02 19:41:28;;;;;;;22.88;16.77;;;;;;;10.37;52.81;97066.31;10402234;28;20067;-48
2023/04/02 19:46:27;;;;;;;20.63;13.30;;;;;;;10.20;54.78;97057.00;10401501;28;20131;-48
2023/04/02 19:51:26;;;;;;;32.58;19.02;;;;;;;10.16;54.52;97057.91;10403578;28;20119;-51
2023/04/02 19:56:26;;;;;;;28.67;17.73;;;;;;;10.07;55.21;97067.50;10403048;28;20351;-52
2023/04/02 20:01:25;;;;;;;22.48;14.40;;;;;;;10.02;55.21;97070.16;10402568;28;20072;-53
2023/04/02 20:06:24;;;;;;;74.95;45.53;;;;;;;9.75;55.70;97041.03;10401480;28;20127;-52
2023/04/02 20:11:27;;;;;;;;;;;;;;;9.94;56.11;97074.56;10401801;28;20123;-50
2023/04/02 20:16:26;;;;;;;47.00;24.35;;;;;;;9.92;55.61;97071.13;10402183;28;20386;-52
2023/04/02 20:21:26;;;;;;;29.83;17.30;;;;;;;9.87;56.15;97076.34;10402325;28;20067;-54
2023/04/02 20:26:26;;;;;;;15.65;9.43;;;;;;;9.80;56.41;97066.06;10401856;28;20092;-51
2023/04/02 20:31:25;;;;;;;13.55;9.10;;;;;;;9.75;56.59;97066.09;10384743;28;20543;-49
2023/04/02 20:36:24;;;;;;;16.42;9.15;;;;;;;9.60;57.28;97072.25;10401808;28;20079;-52
2023/04/02 20:41:23;;;;;;;27.20;14.20;;;;;;;9.58;57.27;97068.81;10402322;28;20024;-52
2023/04/02 20:46:22;;;;;;;13.55;8.65;;;;;;;9.22;60.38;97077.69;10402840;28;20481;-51
2023/04/02 20:51:21;;;;;;;60.05;28.48;;;;;;;9.19;60.35;97073.38;10406689;28;20457;-52
2023/04/02 20:56:22;;;;;;;;;;;;;;;9.14;60.64;97069.97;10415516;28;20082;-52
2023/04/02 21:01:24;;;;;;;142.88;73.28;;;;;;;8.93;61.32;97070.97;10413630;28;19967;-52
2023/04/02 21:06:26;;;;;;;20.13;8.73;;;;;;;8.84;61.75;97095.16;10415482;28;20086;-51
2023/04/02 21:11:25;;;;;;;19.98;8.93;;;;;;;8.58;62.76;97087.50;10414614;28;20510;-50
2023/04/02 21:16:32;;;;;;;26.02;16.25;;;;;;;8.43;62.57;97087.53;10415215;28;20044;-52
2023/04/02 21:21:32;;;;;;;6.45;3.30;;;;;;;8.40;62.44;97096.19;10413621;28;20079;-53
2023/04/02 21:26:34;;;;;;;6.00;3.65;;;;;;;8.31;63.20;97103.97;10414302;28;20510;-51
2023/04/02 21:31:36;;;;;;;24.65;14.02;;;;;;;8.20;64.38;97100.53;10415960;28;20076;-52
2023/04/02 21:36:40;;;;;;;28.02;17.85;;;;;;;8.14;63.62;97100.56;10416734;28;20075;-51
2023/04/02 21:41:42;;;;;;;23.63;14.95;;;;;;;8.06;64.66;97109.19;10417302;28;20068;-51
2023/04/02 21:46:43;;;;;;;11.30;5.13;;;;;;;8.00;65.36;97110.91;10418262;28;20044;-50
2023/04/02 21:51:44;;;;;;;8.35;5.20;;;;;;;7.93;66.67;97117.81;10415151;28;20517;-47
2023/04/02 21:56:45;;;;;;;11.48;6.63;;;;;;;7.90;65.90;97119.50;10417601;28;20068;-50
2023/04/02 22:01:49;;;;;;;11.55;6.75;;;;;;;7.83;66.00;97132.47;10414806;28;20059;-52
2023/04/02 22:06:50;;;;;;;12.07;7.75;;;;;;;7.79;66.19;97130.72;10424551;28;20136;-49
2023/04/02 22:11:57;;;;;;;11.55;7.47;;;;;;;7.75;66.13;97117.81;10408962;28;20087;-52
2023/04/02 22:16:57;;;;;;;9.25;5.93;;;;;;;7.73;66.52;97120.38;10409840;28;20076;-50
2023/04/02 22:21:56;;;;;;;12.70;7.47;;;;;;;7.67;66.68;97120.41;10402913;28;20079;-50
2023/04/02 22:26:55;;;;;;;17.27;9.48;;;;;;;7.61;66.40;97107.47;10403139;28;20059;-50
2023/04/02 22:31:54;;;;;;;19.05;10.30;;;;;;;7.64;66.53;97121.25;10405437;28;20048;-50
2023/04/02 22:36:53;;;;;;;17.15;10.95;;;;;;;7.61;67.36;97118.66;10407276;28;20160;-49
2023/04/02 22:41:52;;;;;;;16.40;10.48;;;;;;;7.58;67.72;97107.50;10408596;28;20058;-50
2023/04/02 22:46:51;;;;;;;18.27;10.38;;;;;;;7.47;68.36;97110.03;10410043;28;20020;-49
2023/04/02 22:51:50;;;;;;;18.63;11.32;;;;;;;7.42;68.30;97122.09;10409949;28;20063;-48
2023/04/02 22:56:49;;;;;;;18.92;9.10;;;;;;;7.41;69.13;97133.28;10408649;28;20064;-49
2023/04/02 23:01:48;;;;;;;;;;;;;;;7.35;68.83;97128.06;10408795;28;20048;-50
2023/04/02 23:06:47;;;;;;;16.70;10.48;;;;;;;7.20;71.33;97129.78;10409424;28;19916;-50
2023/04/02 23:11:46;;;;;;;14.80;9.70;;;;;;;7.04;71.29;97130.59;10409145;28;20540;-49
2023/04/02 23:16:45;;;;;;;10.82;7.07;;;;;;;6.85;71.45;97128.81;10408426;28;20115;-51
2023/04/02 23:21:44;;;;;;;11.15;7.18;;;;;;;6.71;71.84;97124.47;10408943;28;20505;-49
2023/04/02 23:26:43;;;;;;;11.90;7.63;;;;;;;6.56;72.02;97130.44;10407021;28;20410;-49
2023/04/02 23:31:42;;;;;;;16.27;8.25;;;;;;;6.24;71.70;97076.13;10408019;28;20032;-50
2023/04/02 23:36:41;;;;;;;12.70;8.52;;;;;;;6.45;71.72;97116.63;10407879;28;20036;-49
2023/04/02 23:41:42;;;;;;;14.40;9.35;;;;;;;6.36;72.43;97127.72;10407995;28;20036;-49
2023/04/02 23:46:41;;;;;;;16.60;9.98;;;;;;;6.37;72.52;97119.16;10407686;28;20703;-50
2023/04/02 23:51:40;;;;;;;14.45;9.80;;;;;;;6.24;73.04;97101.91;10406660;28;20486;-50
2023/04/02 23:56:39;;;;;;;;;;;;;;;6.31;73.69;97116.53;10406780;28;20479;-51
